sim
Sign-in with your pilot id or email,
or register
Callsign
Passwort

Schedule Details

Flight Number: OEO3127
Departure: London Heathrow Airport (EGLL) at 14:25
Arrival: Munich Airport (EDDM) at 16:10

Weather Information
Getting current METAR information for EGLL 280750Z AUTO 30006KT 9999 NCD 09/05 Q1014 NOSIG
Getting current METAR information for EDDM 280750Z VRB02KT 9999 -RA FEW005 BKN045 07/06 Q1010 NOSIG

Schedule Frequency

Route Map